Schönewalde, Germany

7:33 PM CEST on July 24, 2016 (GMT +0200)
Holzdorf Air Base | | Change Station

Elev 266 ft 51.77 °N, 13.17 °E | Updated 13 minutes ago

Partly Cloudy
Partly Cloudy
81 °F
Feels Like 82 °F
N
7
Wind Variable Wind from ESE

Today
High -- | Low -- °F
--% Chance of Precip.
Yesterday
High -- | Low -- °F
Precip. -- in
Pressure 30.04 in
Visibility 6.2 miles
Clouds Few 6000 ft
Heat Index 82 °F
Dew Point 61 °F
Humidity 51%
Rainfall 0.00 in
Snow Depth Not available.
5:18 AM 9:08 PM
Waning Gibbous, 74% visible
METAR ETSH 241720Z 11006KT 9999 FEW060 27/16 Q1017 BLU+
Pressure 30.04 in
Visibility 6.2 miles
Clouds Few 6000 ft
Heat Index 82 °F
Dew Point 61 °F
Humidity 51%
Rainfall 0.00 in
Snow Depth Not available.
5:18 AM 9:08 PM
Waning Gibbous, 74% visible
METAR ETSH 241720Z 11006KT 9999 FEW060 27/16 Q1017 BLU+

10-Day Weather Forecast

×

Almanac

Astronomy

Jul. 24, 2016 Rise Set
Actual Time
Civil Twilight
Nautical Twilight
Astronomical Twilight
Moon
Length of Visible Light
Length of Day
Tomorrow will be .
, % of the Moon is Illuminated

Today's Extremes

Country Highs Country Lows

Community

WunderPhotos

Upload Photos

1,927,132 photos uploaded!

WunderBlog® & News

Nearby

Air Quality

  Air Quality AQ Index Pollutant
Not available.

Snow Depth

Station Depth Elevation

Earthquake Activity

City Distance Mag. Time & Date
Minimum magnitude displayed is 2.5.

Coastal Water Temperatures

Place Temperature

Stations

Nearby Weather Stations

Station Location Temp. Windchill Dew Point Humidity Wind Precip. Elev Updated Type